Time;durP1;ratioP1;P1;durP2;ratioP2;P2;SDS_P1;SDS_P2;PMS_P1;PMS_P2;Temp;Humidity;BMP_temperature;BMP_pressure;BME280_temperature;BME280_humidity;BME280_pressure;Samples;Min_cycle;Max_cycle;Signal;HPM_P1;HPM_P2
2023/01/10 00:02:26;;;;;;;119.32;101.07;;;;;;;-1.67;100.00;100499.75;5000083;28;20046;-83
2023/01/10 00:04:52;;;;;;;124.22;102.85;;;;;;;-1.63;100.00;100489.94;4999557;28;20510;-82
2023/01/10 00:07:20;;;;;;;116.75;96.97;;;;;;;-1.72;100.00;100499.34;4999026;28;20097;-83
2023/01/10 00:09:47;;;;;;;119.75;91.43;;;;;;;-1.74;100.00;100485.63;4999323;28;20042;-83
2023/01/10 00:14:58;;;;;;;125.10;108.53;;;;;;;-1.87;100.00;100479.84;5000195;28;20045;-83
2023/01/10 00:17:25;;;;;;;121.90;107.25;;;;;;;-1.61;100.00;100485.41;4999245;28;20112;-83
2023/01/10 00:19:51;;;;;;;118.78;105.55;;;;;;;-1.55;100.00;100478.84;4999434;28;20050;-83
2023/01/10 00:22:23;;;;;;;114.35;102.13;;;;;;;-1.45;100.00;100475.31;5000065;28;20109;-83
2023/01/10 00:24:52;;;;;;;127.25;113.57;;;;;;;-1.32;100.00;100477.66;5000442;28;20046;-83
2023/01/10 00:27:22;;;;;;;114.22;101.85;;;;;;;-1.41;100.00;100468.84;5000977;28;20050;-82
2023/01/10 00:29:51;;;;;;;127.68;110.65;;;;;;;-1.22;100.00;100470.66;4999884;28;20054;-83
2023/01/10 00:32:18;;;;;;;132.13;107.30;;;;;;;-1.19;100.00;100474.78;4999587;28;20081;-83
2023/01/10 00:34:44;;;;;;;172.20;128.98;;;;;;;-1.13;100.00;100468.22;4999858;28;20062;-83
2023/01/10 00:37:11;;;;;;;146.07;104.20;;;;;;;-1.18;100.00;100466.00;4999809;28;20042;-83
2023/01/10 00:39:38;;;;;;;135.93;94.35;;;;;;;-1.20;100.00;100468.75;5000359;28;20108;-83
2023/01/10 00:44:51;;;;;;;169.35;139.05;;;;;;;-1.29;100.00;100458.31;4999836;28;20045;-83
2023/01/10 00:47:18;;;;;;;149.82;118.53;;;;;;;-1.47;100.00;100458.97;4999772;28;20133;-82
2023/01/10 00:49:44;;;;;;;144.98;107.80;;;;;;;-1.27;100.00;100457.25;4999416;28;20132;-83
2023/01/10 00:52:11;;;;;;;135.25;114.10;;;;;;;-1.09;100.00;100465.22;4999882;28;20049;-83
2023/01/10 00:54:38;;;;;;;216.90;148.30;;;;;;;-1.22;100.00;100469.84;4999845;28;20105;-83
2023/01/10 00:57:06;;;;;;;181.48;137.70;;;;;;;-1.25;100.00;100464.91;5000178;28;20085;-82
2023/01/10 00:59:33;;;;;;;192.85;149.00;;;;;;;-1.09;100.00;100453.94;4999533;28;20046;-83
2023/01/10 01:01:59;;;;;;;158.40;127.10;;;;;;;-1.16;100.00;100441.44;4998365;28;20586;-83
2023/01/10 01:04:26;;;;;;;141.45;115.70;;;;;;;-1.08;100.00;100450.38;4996595;28;20571;-83
2023/01/10 01:06:53;;;;;;;136.68;112.90;;;;;;;-0.95;100.00;100446.53;4996788;28;20050;-82
2023/01/10 01:09:20;;;;;;;157.05;118.35;;;;;;;-1.21;100.00;100445.41;4997529;28;20050;-83
2023/01/10 01:11:46;;;;;;;176.63;135.90;;;;;;;-1.36;100.00;100446.78;4999217;28;20046;-82
2023/01/10 01:14:14;;;;;;;169.18;130.05;;;;;;;-1.17;100.00;100450.25;4998053;28;20479;-83
2023/01/10 01:16:41;;;;;;;184.05;146.20;;;;;;;-1.10;100.00;100439.25;4997804;28;20117;-83
2023/01/10 01:19:08;;;;;;;156.02;128.75;;;;;;;-1.03;100.00;100443.81;4997857;28;20054;-83
2023/01/10 01:21:35;;;;;;;159.80;134.18;;;;;;;-0.97;100.00;100453.69;4997008;28;20055;-82
2023/01/10 01:24:01;;;;;;;166.52;134.95;;;;;;;-1.03;100.00;100443.81;4997130;28;20046;-83
2023/01/10 01:26:28;;;;;;;158.50;119.20;;;;;;;-0.97;100.00;100445.88;4998127;28;20061;-83
2023/01/10 01:28:55;;;;;;;133.93;109.38;;;;;;;-0.84;100.00;100436.94;4997981;28;20483;-83
2023/01/10 01:31:23;;;;;;;156.40;118.78;;;;;;;-1.34;100.00;100437.88;4997593;28;20043;-83
2023/01/10 01:33:50;;;;;;;156.40;117.68;;;;;;;-0.87;100.00;100440.63;4997870;28;20479;-83
2023/01/10 01:36:17;;;;;;;165.23;128.18;;;;;;;-0.75;100.00;100441.31;4996881;28;20077;-83
2023/01/10 01:38:43;;;;;;;153.07;106.78;;;;;;;-0.87;100.00;100445.03;4998157;28;20050;-83
2023/01/10 01:44:04;;;;;;;153.75;106.55;;;;;;;-0.78;100.00;100449.41;4996484;28;20050;-83
2023/01/10 01:46:34;;;;;;;167.57;137.45;;;;;;;-0.57;100.00;100441.44;4989610;28;20050;-83
2023/01/10 01:49:04;;;;;;;163.60;124.05;;;;;;;-0.48;100.00;100451.84;4996024;28;20042;-83
2023/01/10 01:51:33;;;;;;;167.73;137.30;;;;;;;-0.41;100.00;100433.81;4996824;28;20519;-83
2023/01/10 01:54:04;;;;;;;175.60;140.23;;;;;;;-0.62;100.00;100433.19;4995775;28;20058;-83
2023/01/10 01:56:35;;;;;;;185.50;152.35;;;;;;;-0.54;100.00;100443.75;4996787;28;20587;-83
2023/01/10 01:59:05;;;;;;;178.10;146.02;;;;;;;-0.61;100.00;100445.25;4996912;28;20046;-83
2023/01/10 02:01:35;;;;;;;185.25;150.50;;;;;;;-0.59;100.00;100438.94;4997664;28;20042;-83
2023/01/10 02:04:09;;;;;;;191.95;158.10;;;;;;;-0.52;100.00;100433.97;4998141;28;20097;-83
2023/01/10 02:06:36;;;;;;;184.32;144.35;;;;;;;-0.43;100.00;100435.75;4997267;28;20050;-82
2023/01/10 02:09:10;;;;;;;196.23;141.55;;;;;;;-0.46;100.00;100438.63;4997999;28;20050;-83
2023/01/10 02:11:37;;;;;;;174.45;119.05;;;;;;;-0.39;100.00;100450.19;4997086;28;20053;-83
2023/01/10 02:14:06;;;;;;;173.02;116.93;;;;;;;-0.53;100.00;100441.00;4996981;28;20108;-83
2023/01/10 02:16:34;;;;;;;176.68;120.47;;;;;;;-0.36;100.00;100446.47;4998434;28;20053;-83
2023/01/10 02:19:01;;;;;;;177.23;120.78;;;;;;;-0.49;100.00;100437.13;4997234;28;20043;-83
2023/01/10 02:21:44;;;;;;;187.00;125.28;;;;;;;-0.19;100.00;100435.25;4997056;28;20069;-83
2023/01/10 02:27:10;;;;;;;192.65;126.93;;;;;;;-0.24;100.00;100430.47;5086656;27;20421;-83
2023/01/10 02:29:58;;;;;;;199.55;130.90;;;;;;;-0.01;100.00;100433.53;5074333;28;20049;-83
2023/01/10 02:32:38;;;;;;;198.48;131.38;;;;;;;-0.09;100.00;100430.00;5074744;28;20052;-83
2023/01/10 02:35:21;;;;;;;204.40;137.85;;;;;;;-0.01;100.00;100427.50;5070536;28;20044;-82
2023/01/10 02:37:53;;;;;;;;;;;;;;;-0.06;100.00;100414.88;5068214;28;20049;-82
2023/01/10 02:40:29;;;;;;;188.57;136.68;;;;;;;-0.06;100.00;100424.47;5073852;28;20005;-83
2023/01/10 02:43:01;;;;;;;199.55;135.93;;;;;;;0.04;100.00;100427.06;5077582;28;20049;-83
2023/01/10 02:45:34;;;;;;;203.45;135.80;;;;;;;0.09;100.00;100422.22;5076866;28;20048;-83
2023/01/10 02:48:02;;;;;;;206.60;142.13;;;;;;;0.05;100.00;100418.25;5075843;28;20053;-83
2023/01/10 02:50:36;;;;;;;218.73;145.95;;;;;;;-0.01;100.00;100411.81;5075293;28;20048;-83
2023/01/10 02:53:06;;;;;;;220.30;143.65;;;;;;;-0.20;100.00;100404.09;5076672;28;20076;-83
2023/01/10 02:55:44;;;;;;;225.32;139.43;;;;;;;-0.14;100.00;100412.16;5071727;28;20079;-83
2023/01/10 02:58:24;;;;;;;227.57;146.95;;;;;;;-0.03;100.00;100414.59;5073789;28;20104;-82
2023/01/10 03:01:00;;;;;;;220.70;149.68;;;;;;;0.17;100.00;100417.91;5068510;28;20057;-83
2023/01/10 03:03:36;;;;;;;234.48;152.85;;;;;;;-0.21;100.00;100408.50;5073236;28;20049;-82
2023/01/10 03:06:22;;;;;;;231.85;151.43;;;;;;;0.09;100.00;100407.41;5071305;28;20044;-82
2023/01/10 03:08:55;;;;;;;266.75;165.80;;;;;;;0.09;100.00;100417.84;5072572;28;20472;-83
2023/01/10 03:11:39;;;;;;;252.65;165.30;;;;;;;0.22;100.00;100409.66;5067492;28;20044;-83
2023/01/10 03:14:11;;;;;;;261.27;161.48;;;;;;;0.39;100.00;100413.25;5073008;28;20140;-82
2023/01/10 03:16:41;;;;;;;287.23;173.35;;;;;;;0.18;100.00;100410.91;5067538;28;20459;-83
2023/01/10 03:19:13;;;;;;;271.17;176.32;;;;;;;0.22;100.00;100418.31;5065353;28;20053;-82
2023/01/10 03:21:42;;;;;;;267.85;173.50;;;;;;;0.13;100.00;100402.69;5071957;28;20056;-83
2023/01/10 03:24:13;;;;;;;268.38;165.57;;;;;;;0.27;100.00;100399.56;5069694;28;20051;-82
2023/01/10 03:26:48;;;;;;;273.10;167.63;;;;;;;0.41;100.00;100387.81;5072956;28;20052;-83
2023/01/10 03:29:21;;;;;;;277.88;169.10;;;;;;;0.50;100.00;100401.78;5070671;28;20045;-82
2023/01/10 03:31:53;;;;;;;260.50;161.85;;;;;;;0.28;100.00;100396.00;5067033;28;20138;-82
2023/01/10 03:34:23;;;;;;;264.52;160.02;;;;;;;0.52;100.00;100400.66;5072742;28;20071;-82
2023/01/10 03:36:57;;;;;;;265.23;158.43;;;;;;;0.38;100.00;100390.72;5067531;28;20045;-83
2023/01/10 03:39:30;;;;;;;263.45;157.45;;;;;;;0.57;100.00;100387.97;5058868;28;20044;-83
2023/01/10 03:42:05;;;;;;;260.20;164.57;;;;;;;0.59;100.00;100386.03;5060697;28;20048;-82
2023/01/10 03:44:42;;;;;;;272.17;165.73;;;;;;;0.58;100.00;100383.56;5055236;28;20049;-83
2023/01/10 03:47:14;;;;;;;263.00;165.38;;;;;;;0.66;100.00;100391.47;5056868;28;20073;-82
2023/01/10 03:49:46;;;;;;;265.60;169.77;;;;;;;0.79;100.00;100385.88;5058517;28;20045;-83
2023/01/10 03:52:16;;;;;;;257.98;168.85;;;;;;;0.53;100.00;100377.97;5059604;28;20422;-83
2023/01/10 03:54:43;;;;;;;253.15;161.57;;;;;;;0.77;100.00;100369.53;5054085;28;20045;-83
2023/01/10 03:57:15;;;;;;;282.52;176.20;;;;;;;0.73;100.00;100365.53;5060925;28;20049;-82
2023/01/10 03:59:42;;;;;;;;;;;;;;;0.75;100.00;100356.59;5059061;28;20110;-83
2023/01/10 04:02:08;;;;;;;282.95;173.13;;;;;;;0.77;100.00;100357.25;5055467;28;19920;-82
2023/01/10 04:04:35;;;;;;;282.10;167.82;;;;;;;0.74;100.00;100370.66;5059970;28;20084;-82
2023/01/10 04:07:03;;;;;;;280.52;168.70;;;;;;;0.77;100.00;100370.34;5059244;28;20041;-83
2023/01/10 04:09:30;;;;;;;278.08;168.32;;;;;;;0.78;100.00;100368.53;5058847;28;20090;-83
2023/01/10 04:11:57;;;;;;;276.35;171.38;;;;;;;0.90;100.00;100365.53;5060392;28;20107;-83
2023/01/10 04:14:23;;;;;;;276.00;175.98;;;;;;;0.87;100.00;100362.41;5060017;28;20048;-82
2023/01/10 04:16:50;;;;;;;277.30;171.48;;;;;;;0.95;100.00;100353.81;5059237;28;20049;-83
2023/01/10 04:19:17;;;;;;;267.83;165.75;;;;;;;0.83;100.00;100350.63;5059590;28;20481;-82
2023/01/10 04:21:43;;;;;;;267.67;165.43;;;;;;;0.89;100.00;100357.84;5048925;28;20063;-82
2023/01/10 04:24:12;;;;;;;283.80;186.40;;;;;;;1.01;100.00;100363.66;5060140;28;20044;-82
2023/01/10 04:26:38;;;;;;;283.95;183.00;;;;;;;0.92;100.00;100349.72;5059573;28;20060;-82
2023/01/10 04:29:05;;;;;;;289.98;192.45;;;;;;;0.98;100.00;100350.91;5058579;28;20072;-82
2023/01/10 04:31:32;;;;;;;290.90;188.27;;;;;;;0.84;100.00;100347.03;5059778;28;20132;-83
2023/01/10 04:33:59;;;;;;;278.73;191.65;;;;;;;0.89;100.00;100340.38;5058729;28;20052;-82
2023/01/10 04:36:26;;;;;;;292.77;216.82;;;;;;;0.84;100.00;100354.88;5048701;28;20132;-82
2023/01/10 04:38:53;;;;;;;307.75;223.52;;;;;;;0.71;100.00;100342.19;5048958;28;20075;-82
2023/01/10 04:41:21;;;;;;;316.65;225.13;;;;;;;0.69;100.00;100363.22;5059454;28;20126;-82
2023/01/10 04:43:49;;;;;;;282.48;203.27;;;;;;;0.75;100.00;100371.47;5059756;28;20146;-82
2023/01/10 04:46:15;;;;;;;326.27;219.40;;;;;;;0.59;100.00;100374.75;5059062;28;20049;-82
2023/01/10 04:48:42;;;;;;;327.25;210.15;;;;;;;0.61;100.00;100362.38;5057289;28;20049;-83
2023/01/10 04:51:09;;;;;;;331.73;216.95;;;;;;;0.62;100.00;100362.22;5046963;28;20411;-82
2023/01/10 04:53:36;;;;;;;335.70;216.60;;;;;;;0.53;100.00;100365.72;5057938;28;20052;-82
2023/01/10 04:56:04;;;;;;;318.75;203.63;;;;;;;0.64;100.00;100362.06;5049297;28;20052;-83
2023/01/10 04:58:34;;;;;;;290.98;185.13;;;;;;;0.80;100.00;100362.19;5043425;28;20525;-83
2023/01/10 05:01:00;;;;;;;302.00;187.98;;;;;;;0.60;100.00;100369.38;5058357;28;20053;-82
2023/01/10 05:03:27;;;;;;;317.77;204.27;;;;;;;0.51;100.00;100372.88;5057946;28;20114;-82
2023/01/10 05:05:54;;;;;;;274.15;166.23;;;;;;;0.59;100.00;100366.91;5047441;28;20048;-83
2023/01/10 05:08:20;;;;;;;322.73;192.45;;;;;;;0.40;100.00;100360.88;5057640;28;20049;-83
2023/01/10 05:10:47;;;;;;;282.48;172.75;;;;;;;0.58;100.00;100354.81;5057555;28;20071;-83
2023/01/10 05:13:14;;;;;;;331.90;198.27;;;;;;;0.34;100.00;100358.03;5057497;28;20103;-82
2023/01/10 05:15:42;;;;;;;391.98;255.88;;;;;;;0.57;100.00;100363.63;5052583;28;20045;-83
2023/01/10 05:18:09;;;;;;;336.55;204.60;;;;;;;0.63;100.00;100358.59;5058549;28;20053;-82
2023/01/10 05:20:35;;;;;;;321.30;198.77;;;;;;;0.50;100.00;100344.28;5052483;28;20056;-83
2023/01/10 05:23:02;;;;;;;307.42;194.23;;;;;;;0.31;100.00;100355.72;5057480;28;20053;-83
2023/01/10 05:25:29;;;;;;;288.00;176.25;;;;;;;0.45;100.00;100356.03;5055865;28;20045;-83
2023/01/10 05:27:56;;;;;;;280.88;164.07;;;;;;;0.63;100.00;100357.78;5058015;28;20122;-83
2023/01/10 05:30:22;;;;;;;263.55;160.38;;;;;;;0.68;100.00;100345.91;5057959;28;20052;-83
2023/01/10 05:32:50;;;;;;;232.85;136.95;;;;;;;0.72;100.00;100328.13;5057751;28;20500;-83
2023/01/10 05:35:17;;;;;;;238.00;140.55;;;;;;;0.65;100.00;100320.09;5055430;28;20041;-83
2023/01/10 05:37:44;;;;;;;215.98;133.52;;;;;;;0.74;100.00;100326.19;5056860;28;20049;-83
2023/01/10 05:40:12;;;;;;;164.60;114.13;;;;;;;0.82;100.00;100317.59;5056424;28;20053;-83
2023/01/10 05:42:38;;;;;;;214.50;133.90;;;;;;;0.59;100.00;100317.25;5051202;28;20470;-83
2023/01/10 05:45:06;;;;;;;208.20;132.40;;;;;;;0.67;100.00;100320.75;5054434;28;20053;-83
2023/01/10 05:47:33;;;;;;;211.82;128.48;;;;;;;0.56;100.00;100314.94;5057286;28;20514;-83
2023/01/10 05:50:01;;;;;;;276.20;159.25;;;;;;;0.58;100.00;100316.44;5052723;28;20102;-82
2023/01/10 05:52:27;;;;;;;237.60;141.43;;;;;;;0.67;100.00;100307.69;5051702;28;20045;-83
2023/01/10 05:54:54;;;;;;;235.35;143.48;;;;;;;0.53;100.00;100307.41;5057318;28;20056;-83
2023/01/10 05:57:23;;;;;;;165.60;112.88;;;;;;;0.85;100.00;100318.13;5057669;28;20502;-83
2023/01/10 05:59:50;;;;;;;233.35;137.27;;;;;;;0.68;100.00;100318.97;5057095;28;20053;-83
2023/01/10 06:02:16;;;;;;;242.15;147.75;;;;;;;0.88;100.00;100324.84;5056481;28;20057;-83
2023/01/10 06:04:43;;;;;;;152.13;99.93;;;;;;;1.92;100.00;100322.09;4988770;28;20053;-83
2023/01/10 06:07:21;;;;;;;188.57;122.60;;;;;;;1.69;100.00;100315.78;5023936;28;20075;-83
2023/01/10 06:09:50;;;;;;;126.55;89.88;;;;;;;2.26;100.00;100340.34;5021231;28;20453;-83
2023/01/10 06:12:17;;;;;;;169.70;115.85;;;;;;;1.58;100.00;100343.09;5025049;28;20058;-83
2023/01/10 06:14:44;;;;;;;133.80;97.93;;;;;;;2.27;100.00;100351.69;5020441;28;20061;-83
2023/01/10 06:17:10;;;;;;;154.13;111.75;;;;;;;2.03;100.00;100344.56;5016813;28;20068;-83
2023/01/10 06:19:37;;;;;;;212.43;140.73;;;;;;;2.03;100.00;100339.34;5024907;28;20104;-83
2023/01/10 06:22:04;;;;;;;227.00;140.95;;;;;;;2.07;100.00;100348.50;5025397;28;20053;-83
2023/01/10 06:24:32;;;;;;;241.15;147.68;;;;;;;1.72;100.00;100350.31;5025963;28;20065;-83
2023/01/10 06:26:59;;;;;;;234.68;140.07;;;;;;;2.23;100.00;100352.94;5021000;28;20045;-83
2023/01/10 06:29:26;;;;;;;167.15;112.68;;;;;;;2.90;100.00;100353.66;4992052;28;20107;-82
2023/01/10 06:31:53;;;;;;;159.45;110.18;;;;;;;3.41;100.00;100371.81;5053851;28;20049;-82
2023/01/10 06:34:19;;;;;;;152.07;110.25;;;;;;;3.52;100.00;100363.59;5041072;28;20037;-83
2023/01/10 06:36:46;;;;;;;160.63;118.85;;;;;;;3.30;100.00;100359.88;5053911;28;20049;-83
2023/01/10 06:39:13;;;;;;;151.55;118.28;;;;;;;3.24;100.00;100363.16;5048764;28;20485;-83
2023/01/10 06:41:41;;;;;;;170.48;125.00;;;;;;;2.94;100.00;100365.50;5049565;28;20045;-83
2023/01/10 06:44:08;;;;;;;169.05;123.53;;;;;;;2.59;100.00;100357.94;5047139;28;20153;-83
2023/01/10 06:46:34;;;;;;;161.07;119.85;;;;;;;3.02;100.00;100358.59;5045592;28;20049;-82
2023/01/10 06:49:01;;;;;;;144.50;114.65;;;;;;;2.44;100.00;100347.25;5046760;28;20109;-83
2023/01/10 06:51:28;;;;;;;131.13;102.93;;;;;;;2.81;100.00;100356.47;5046562;28;20107;-83
2023/01/10 06:53:55;;;;;;;150.65;115.72;;;;;;;2.58;100.00;100356.31;5047982;28;20041;-83
2023/01/10 06:56:22;;;;;;;143.70;108.05;;;;;;;2.50;100.00;100357.09;5048501;28;20049;-83
2023/01/10 06:58:50;;;;;;;155.90;116.25;;;;;;;2.91;100.00;100349.25;5042224;28;20070;-83
2023/01/10 07:01:19;;;;;;;151.23;110.93;;;;;;;2.53;100.00;100356.78;5047777;28;20051;-83
2023/01/10 07:03:46;;;;;;;148.60;106.63;;;;;;;2.46;100.00;100340.06;5049711;28;20056;-83
2023/01/10 07:06:13;;;;;;;156.52;116.40;;;;;;;2.59;100.00;100336.97;5047153;28;20095;-82
2023/01/10 07:08:41;;;;;;;147.80;113.45;;;;;;;2.57;100.00;100337.09;5047469;28;20064;-83
2023/01/10 07:11:08;;;;;;;153.30;119.18;;;;;;;2.36;100.00;100339.38;5047625;28;20057;-82
2023/01/10 07:13:36;;;;;;;138.27;104.45;;;;;;;2.77;100.00;100347.28;5042603;28;20041;-83
2023/01/10 07:16:06;;;;;;;140.68;107.90;;;;;;;3.14;100.00;100342.31;5046801;28;20053;-83
2023/01/10 07:18:34;;;;;;;145.73;108.70;;;;;;;3.42;100.00;100340.16;5049812;28;20072;-83
2023/01/10 07:21:00;;;;;;;132.40;104.60;;;;;;;3.78;100.00;100354.63;5053734;28;20045;-82
2023/01/10 07:23:29;;;;;;;140.60;109.03;;;;;;;3.84;100.00;100353.94;5055114;28;20049;-83
2023/01/10 07:25:56;;;;;;;132.27;109.93;;;;;;;4.05;100.00;100364.69;5051037;28;20092;-83
2023/01/10 07:28:23;;;;;;;126.88;109.05;;;;;;;3.90;100.00;100353.25;5049192;28;20045;-83
2023/01/10 07:30:49;;;;;;;127.47;113.57;;;;;;;3.85;100.00;100358.22;5054189;28;20076;-83
2023/01/10 07:33:17;;;;;;;132.68;118.00;;;;;;;3.71;100.00;100358.94;5054686;28;20057;-83
2023/01/10 07:35:44;;;;;;;129.48;110.72;;;;;;;3.75;100.00;100357.59;5055061;28;20049;-83
2023/01/10 07:38:11;;;;;;;135.02;108.65;;;;;;;3.84;100.00;100360.03;5049387;28;20513;-83
2023/01/10 07:40:38;;;;;;;133.63;118.38;;;;;;;4.00;100.00;100353.06;5048837;28;20038;-83
2023/01/10 07:43:04;;;;;;;136.88;117.45;;;;;;;3.96;100.00;100364.91;5062964;28;20049;-83
2023/01/10 07:45:31;;;;;;;127.82;107.97;;;;;;;4.24;100.00;100363.47;5052844;28;20045;-83
2023/01/10 07:47:59;;;;;;;147.48;118.13;;;;;;;4.31;100.00;100359.13;5053362;28;20042;-83
2023/01/10 07:50:31;;;;;;;163.50;127.45;;;;;;;4.38;100.00;100361.88;5050190;28;20099;-83
2023/01/10 07:52:59;;;;;;;206.43;145.43;;;;;;;4.41;100.00;100347.56;5031206;28;20407;-83
2023/01/10 07:55:27;;;;;;;197.85;138.30;;;;;;;4.56;100.00;100353.72;5040548;28;20494;-83
2023/01/10 07:57:54;;;;;;;191.43;130.23;;;;;;;4.71;100.00;100340.63;5044483;28;20128;-83
2023/01/10 08:00:21;;;;;;;195.23;136.90;;;;;;;4.93;100.00;100352.94;5049986;28;20053;-83
2023/01/10 08:02:52;;;;;;;212.18;142.38;;;;;;;4.85;100.00;100341.66;5052631;28;20044;-83
2023/01/10 08:05:19;;;;;;;201.68;143.35;;;;;;;5.04;100.00;100349.88;5047113;28;20041;-83
2023/01/10 08:07:47;;;;;;;203.70;144.80;;;;;;;5.12;100.00;100350.81;5048830;28;20054;-83
2023/01/10 08:10:14;;;;;;;215.82;155.40;;;;;;;5.19;100.00;100333.28;5049782;28;20050;-83
2023/01/10 08:12:40;;;;;;;227.88;156.70;;;;;;;5.40;100.00;100327.31;5048498;28;20053;-83
2023/01/10 08:15:09;;;;;;;230.57;168.18;;;;;;;5.35;100.00;100330.47;5046435;28;20099;-83
2023/01/10 08:17:37;;;;;;;218.10;164.45;;;;;;;5.38;100.00;100331.94;5051253;28;20494;-83
2023/01/10 08:20:04;;;;;;;215.45;165.38;;;;;;;5.55;100.00;100340.47;5048167;28;20052;-84
2023/01/10 08:22:31;;;;;;;214.38;158.85;;;;;;;5.50;100.00;100338.38;5047912;28;20552;-83
2023/01/10 08:24:59;;;;;;;215.55;175.88;;;;;;;5.66;100.00;100330.31;5050128;28;20049;-83
2023/01/10 08:27:26;;;;;;;224.52;175.45;;;;;;;5.47;100.00;100358.00;5049417;28;20052;-83
2023/01/10 08:29:52;;;;;;;221.88;172.63;;;;;;;5.61;100.00;100343.19;5058312;28;20045;-83
2023/01/10 08:32:19;;;;;;;218.90;170.98;;;;;;;5.76;100.00;100343.19;5053420;28;20053;-83
2023/01/10 08:34:46;;;;;;;211.90;184.13;;;;;;;5.83;100.00;100340.63;5055701;28;20048;-83
2023/01/10 08:37:14;;;;;;;231.05;199.55;;;;;;;5.78;100.00;100333.28;5059077;28;20049;-83
2023/01/10 08:39:40;;;;;;;302.02;227.80;;;;;;;5.62;100.00;100341.38;5056968;28;20106;-84
2023/01/10 08:42:09;;;;;;;270.70;215.02;;;;;;;5.77;100.00;100342.19;5063025;28;20107;-83
2023/01/10 08:44:36;;;;;;;244.70;201.57;;;;;;;5.88;100.00;100336.44;5063718;28;20049;-83
2023/01/10 08:47:02;;;;;;;265.40;204.13;;;;;;;5.95;100.00;100326.00;5058835;28;20045;-84
2023/01/10 08:49:29;;;;;;;289.05;209.93;;;;;;;5.82;100.00;100334.56;5052263;28;20045;-83
2023/01/10 08:51:56;;;;;;;319.25;229.00;;;;;;;5.82;100.00;100323.19;5055538;28;20045;-83
2023/01/10 08:54:23;;;;;;;308.75;224.82;;;;;;;5.96;100.00;100325.84;5055272;28;20103;-83
2023/01/10 08:56:50;;;;;;;319.02;234.70;;;;;;;5.94;100.00;100332.28;5063465;28;20048;-85
2023/01/10 08:59:18;;;;;;;309.15;226.52;;;;;;;6.03;100.00;100323.28;5057064;28;20045;-83
2023/01/10 09:01:45;;;;;;;341.10;238.55;;;;;;;6.28;100.00;100333.47;5053217;28;20049;-83
2023/01/10 09:04:11;;;;;;;324.90;240.15;;;;;;;6.23;100.00;100317.38;5050366;28;20057;-83
2023/01/10 09:06:38;;;;;;;324.45;250.55;;;;;;;6.23;100.00;100315.56;5054945;28;20049;-83
2023/01/10 09:09:05;;;;;;;308.98;238.13;;;;;;;6.27;100.00;100316.84;5052908;28;20053;-83
2023/01/10 09:11:32;;;;;;;291.00;238.70;;;;;;;6.33;100.00;100312.63;5051141;28;20072;-83
2023/01/10 09:13:59;;;;;;;270.60;214.95;;;;;;;6.43;100.00;100319.22;5060232;28;20053;-83
2023/01/10 09:16:27;;;;;;;321.10;239.63;;;;;;;6.48;100.00;100307.31;5052733;28;20115;-83
2023/01/10 09:18:54;;;;;;;324.88;239.82;;;;;;;6.45;100.00;100305.84;5061056;28;20053;-83
2023/01/10 09:21:21;;;;;;;327.20;238.13;;;;;;;6.45;100.00;100289.22;5054127;28;20044;-83
2023/01/10 09:23:48;;;;;;;330.95;234.45;;;;;;;6.44;100.00;100298.94;5051132;28;20064;-83
2023/01/10 09:26:14;;;;;;;288.15;222.05;;;;;;;6.38;100.00;100284.69;5061449;28;20477;-83
2023/01/10 09:28:43;;;;;;;275.52;213.27;;;;;;;6.51;100.00;100281.34;5054364;28;20042;-83
2023/01/10 09:31:10;;;;;;;280.10;212.57;;;;;;;6.40;100.00;100268.66;5063857;28;20052;-83
2023/01/10 09:33:40;;;;;;;320.63;234.05;;;;;;;6.47;100.00;100274.00;5058225;28;20060;-83
2023/01/10 09:36:07;;;;;;;285.88;217.05;;;;;;;6.55;100.00;100271.22;5063235;28;20052;-83
2023/01/10 09:38:34;;;;;;;304.17;233.77;;;;;;;6.62;100.00;100267.63;5057977;28;20414;-83
2023/01/10 09:41:58;;;;;;;322.98;224.38;;;;;;;6.60;100.00;100259.09;5057160;28;20111;-83
2023/01/10 09:44:40;;;;;;;253.88;181.38;;;;;;;6.54;100.00;100259.88;5058067;28;20118;-83
2023/01/10 09:47:19;;;;;;;229.25;177.07;;;;;;;6.63;100.00;100263.19;5063380;28;20067;-83
2023/01/10 09:50:00;;;;;;;205.45;167.02;;;;;;;6.61;100.00;100267.84;5052284;28;20045;-83
2023/01/10 09:52:31;;;;;;;200.38;159.85;;;;;;;6.59;100.00;100264.56;5058005;28;20109;-83
2023/01/10 09:55:04;;;;;;;212.90;156.75;;;;;;;6.53;100.00;100252.94;5059246;28;20057;-83
2023/01/10 09:57:31;;;;;;;219.85;168.07;;;;;;;6.25;100.00;100249.47;5053975;28;20106;-83
2023/01/10 09:59:58;;;;;;;214.13;174.73;;;;;;;6.57;100.00;100258.69;5061321;28;20076;-83
2023/01/10 10:02:30;;;;;;;209.82;174.23;;;;;;;6.63;100.00;100250.00;5052211;28;20506;-83
2023/01/10 10:08:16;;;;;;;250.43;197.73;;;;;;;6.69;100.00;100243.94;5089314;27;20390;-83
2023/01/10 10:11:19;;;;;;;317.33;209.77;;;;;;;6.80;100.00;100234.66;5072561;28;20144;-82
2023/01/10 10:14:15;;;;;;;388.27;244.82;;;;;;;6.83;100.00;100229.81;5064071;28;20487;-82
2023/01/10 10:17:19;;;;;;;335.08;220.93;;;;;;;6.62;100.00;100233.31;5058210;28;20106;-82
2023/01/10 10:23:21;;;;;;;376.00;233.27;;;;;;;6.97;100.00;100217.53;5068938;28;20083;-82
2023/01/10 10:26:02;;;;;;;371.42;232.35;;;;;;;6.89;100.00;100210.56;5069087;28;20048;-82
2023/01/10 10:29:03;;;;;;;349.77;237.77;;;;;;;7.02;100.00;100211.66;5072859;28;20044;-82
2023/01/10 10:31:51;;;;;;;354.20;223.60;;;;;;;6.91;100.00;100207.75;5060577;28;20048;-82
2023/01/10 10:34:48;;;;;;;359.80;236.98;;;;;;;6.99;100.00;100201.47;5069088;28;20078;-82
2023/01/10 10:40:42;;;;;;;371.75;248.50;;;;;;;7.01;100.00;100189.72;5064999;28;20572;-82
2023/01/10 10:46:44;;;;;;;395.17;267.80;;;;;;;7.04;100.00;100170.03;5130562;27;20781;-82
2023/01/10 10:49:19;;;;;;;388.55;257.77;;;;;;;7.15;100.00;100166.03;5126753;28;20124;-82
2023/01/10 10:51:55;;;;;;;393.13;254.25;;;;;;;7.26;100.00;100162.78;5109759;28;20036;-82
2023/01/10 10:54:49;;;;;;;400.27;262.70;;;;;;;7.33;100.00;100159.19;5110038;28;20480;-83
2023/01/10 10:57:59;;;;;;;394.90;252.02;;;;;;;7.41;100.00;100152.09;5109906;28;20048;-83
2023/01/10 11:00:40;;;;;;;228.15;165.82;;;;;;;7.38;100.00;100153.28;5089612;28;20060;-82
2023/01/10 11:03:31;;;;;;;306.20;232.07;;;;;;;7.38;100.00;100155.13;5121565;28;20075;-82
2023/01/10 11:06:00;;;;;;;431.17;286.52;;;;;;;7.43;100.00;100150.06;5093791;28;20040;-81
2023/01/10 11:08:43;;;;;;;378.67;256.42;;;;;;;7.02;100.00;100143.81;5091043;28;20048;-81
2023/01/10 11:11:20;;;;;;;446.83;298.50;;;;;;;7.40;100.00;100132.78;5106090;28;20048;-82
2023/01/10 11:14:01;;;;;;;411.05;276.23;;;;;;;7.72;100.00;100144.44;5102866;28;20047;-82
2023/01/10 11:16:48;;;;;;;419.25;293.63;;;;;;;8.02;100.00;100149.38;5130335;28;20120;-81
2023/01/10 11:19:22;;;;;;;355.48;253.50;;;;;;;8.15;100.00;100145.91;5122059;27;20047;-82
2023/01/10 11:22:06;;;;;;;258.25;214.93;;;;;;;8.08;100.00;100137.97;5088933;28;20053;-83
2023/01/10 11:27:59;;;;;;;209.50;168.90;;;;;;;7.91;100.00;100120.88;5089084;28;20419;-82
2023/01/10 11:30:50;;;;;;;205.15;178.32;;;;;;;7.32;100.00;100104.72;5108822;28;20055;-81
2023/01/10 11:33:43;;;;;;;230.02;205.45;;;;;;;7.43;100.00;100111.25;5109691;28;20105;-81
2023/01/10 11:36:12;;;;;;;249.52;222.88;;;;;;;7.20;100.00;100110.75;5098974;28;20113;-82